デリー の空港の天気 - METARとTAF

インディラ・ガンディー国際空港 ( VIDP / DEL ) - インド デリー
飛行場実況気象(Metar)
観測時間08/17 08:30 IST (08/17 03:00 UTC)
風向・風速西 4m/s
視程3500m
天気現象煙霧
少しの雲 雲底高度 1220m
全天の4割程度の雲 雲底高度 3050m
気温31℃
湿度66%
気圧1002hPa
METARVIDP 170300Z 28008KT 3500 HZ FEW040 SCT100 31/24 Q1002 NOSIG
過去の天気等 Google飛行場航空写真 Wunderground天気予報

過去48時間のMETAR

飛行場予報(TAF)
発表時間: 8/17 04:30 IST (8/16 23:00 UTC)
予報対象時間: 17日5時 IST ~ 18日11時 IST
風向・風速西 3m/s
視程2,500m
天気現象もや 煙霧
少しの雲 雲底高度 1,220m
全天の4割程度の雲 雲底高度 3,050m
17日10時 IST ~ 17日12時 IST に徐々に
風向・風速西北西 4m/s
視程4,000m
天気現象煙霧
全天の4割程度の雲 雲底高度 1,220m
全天の8割程度の雲 雲底高度 3,050m
17日14時 IST ~ 17日18時 IST に一時的に
少しの積乱雲 雲底高度 1,070m
17日19時 IST ~ 17日21時 IST に徐々に
風向・風速西 3m/s
視程3,000m
天気現象煙霧 もや
17日22時 IST ~ 18日2時 IST に一時的に
少しの積乱雲 雲底高度 1,070m
18日9時 IST ~ 18日11時 IST に徐々に
風向・風速北西 4m/s
視程4,000m
天気現象もや 煙霧
少しの雲 雲底高度 1,220m
全天の4割程度の雲 雲底高度 3,050m
TAF VIDP 162300Z 1700/1806 26006KT 2500 BR HZ FEW040 SCT100
BECMG 1705/1707 30008KT 4000 HZ SCT040 BKN100
TEMPO 1709/1713 FEW035CB
BECMG 1714/1716 26006KT 3000 HZ BR
TEMPO 1717/1721 FEW035CB
BECMG 1804/1806 31008KT 4000 BR HZ FEW040 SCT100